หน้าหลัก
METAR-TAF:

METAR-TAF

ท่าอากาศยาน :

Yuma, แอริโซนา, สหรัฐอเมริกา

ละติจูด: 32-37-25N, ลองจิจูด: 113-45-50W, ความสูง: 64 ม.

การสังเกตสภาพอากาศปัจจุบัน

รายงานได้ทำขึ้นเมื่อ 38 นาทีที่แล้ว ณ เวลา 14:57 UTC
ลม 3 นอตจากตะวันตก
อุณหภูมิ 27°C
ความชื้น 32%
ความกดอากาศ 1003 hPa
ทัศนวิสัย: 16.1 กม.
ท้องฟ้าแจ่มใส

METAR: KNYL 181457Z AUTO 27003KT 10SM CLR 27/09 A2963 RMK AO2 SLP029 T02670094 53018

เวลา: 08:35 (15:35 UTC)

การพยากรณ์

การพยากรณ์มีผลตั้งแต่วันที่ 18 ณ เวลา 15 UTC จนถึงวันที่ 19 ณ เวลา 15 UTC
ลม 6 นอตจากเหนือ/ตะวันตกเฉียงเหนือ
ทัศนวิสัย 10 กม. หรือมากกว่า
ท้องฟ้าแจ่มใส
จาก 18 ณ เวลา 2000 UTC
ลม 10 นอตจากตะวันตก
ทัศนวิสัย 10 กม. หรือมากกว่า
ท้องฟ้าแจ่มใส
จาก 19 ณ เวลา 1230 UTC
ลม 4 นอตจากใต้/ตะวันออกเฉียงใต้
ทัศนวิสัย 10 กม. หรือมากกว่า
ท้องฟ้าแจ่มใส

TAF: KNYL 1815/1915 34006KT 9999 SKC QNH2959INS FM182000 27010KT 9999 SKC QNH2952INS FM191230 16004KT 9999 SKC QNH2964INS T40/1823Z T22/1912Z

สังเกตการณ์สภาพอากาศและพยากรณ์อากาศของสนามบินมากกว่า 4000 แห่ง (รายงาน METAR และ TAF).

สถานีที่ดูได้จะแสดงไว้ด้วยจุดสีเหลืองและสีแดงบนแผนที่.

เลื่อนเมาส์ไปเหนือจุดเพื่อดูชื่อสถานี.

แล้วคลิกเพื่อดูสังเกตการณ์และการพยากรณ์สภาพอากาศ.

ในการเปลี่ยนแผนที่: คลิกที่ปุ่มสีเขียวที่มีกากบาทสีดำเพื่อซูมเข้า; ที่ปุ่มสีเขียวที่มีขีดเพื่อซูมออก; หรือที่ลูกศรสีเขียวเพื่อไปยังแผนที่ที่อยู่ติดกัน.


METAR-TAF: